createdAt,value
2017-04-26T00:00:14.948Z,6.90
2017-04-26T00:01:14.741Z,6.90
2017-04-26T00:02:14.473Z,6.90
2017-04-26T00:03:14.195Z,6.90
2017-04-26T00:04:13.878Z,6.90
2017-04-26T00:05:13.612Z,7.00
2017-04-26T00:06:13.317Z,6.90
2017-04-26T00:07:12.993Z,6.90
2017-04-26T00:08:12.663Z,6.90
2017-04-26T00:09:12.349Z,6.90
2017-04-26T00:10:12.089Z,6.90
2017-04-26T00:11:11.781Z,6.90
2017-04-26T00:12:11.522Z,6.80
2017-04-26T00:13:11.213Z,6.80
2017-04-26T00:14:10.873Z,6.80
2017-04-26T00:15:10.545Z,6.80
2017-04-26T00:16:10.255Z,6.80
2017-04-26T00:17:09.941Z,6.80
2017-04-26T00:18:09.689Z,6.80
2017-04-26T00:19:09.328Z,6.80
2017-04-26T00:20:09.005Z,6.80
2017-04-26T00:21:08.774Z,6.80
2017-04-26T00:22:09.235Z,6.80
2017-04-26T00:23:09.045Z,6.80
2017-04-26T00:24:09.515Z,6.90
2017-04-26T00:25:09.325Z,6.90
2017-04-26T00:26:08.993Z,6.80
2017-04-26T00:27:08.718Z,6.80
2017-04-26T00:28:08.400Z,6.80
2017-04-26T00:29:08.141Z,6.80
2017-04-26T00:30:07.825Z,6.80
2017-04-26T00:31:07.502Z,6.80
2017-04-26T00:32:07.187Z,6.80
2017-04-26T00:33:06.910Z,6.80
2017-04-26T00:34:07.306Z,6.80
2017-04-26T00:35:07.046Z,6.80
2017-04-26T00:36:06.701Z,6.90
2017-04-26T00:37:06.392Z,6.90
2017-04-26T00:38:06.059Z,6.90
2017-04-26T00:39:06.509Z,6.80
2017-04-26T00:40:06.291Z,6.80
2017-04-26T00:41:06.031Z,6.80
2017-04-26T00:42:05.712Z,6.80
2017-04-26T00:43:05.374Z,6.70
2017-04-26T00:44:05.131Z,6.70
2017-04-26T00:45:04.828Z,6.70
2017-04-26T00:46:05.239Z,6.70
2017-04-26T00:47:04.954Z,6.70
2017-04-26T00:48:04.801Z,6.70
2017-04-26T00:49:05.216Z,6.60
2017-04-26T00:50:04.883Z,6.60
2017-04-26T00:51:04.581Z,6.60
2017-04-26T00:52:04.307Z,6.60
2017-04-26T00:53:04.022Z,6.60
2017-04-26T00:54:03.745Z,6.60
2017-04-26T00:55:03.424Z,6.60
2017-04-26T00:56:03.080Z,6.70
2017-04-26T00:57:02.805Z,6.60
2017-04-26T00:58:02.478Z,6.60
2017-04-26T00:59:02.172Z,6.60
2017-04-26T01:00:01.938Z,6.60
2017-04-26T01:01:01.618Z,6.60
2017-04-26T01:02:01.296Z,6.50
2017-04-26T01:03:01.008Z,6.50
2017-04-26T01:04:00.721Z,6.50
2017-04-26T01:05:00.459Z,6.50
2017-04-26T01:06:00.213Z,6.50
2017-04-26T01:06:59.933Z,6.40
2017-04-26T01:07:59.609Z,6.40
2017-04-26T01:08:59.316Z,6.40
2017-04-26T01:09:59.764Z,6.40
2017-04-26T01:10:59.466Z,6.40
2017-04-26T01:11:59.114Z,6.40
2017-04-26T01:12:58.850Z,6.40
2017-04-26T01:13:58.532Z,6.50
2017-04-26T01:14:58.979Z,6.40
2017-04-26T01:15:58.718Z,6.40
2017-04-26T01:16:58.409Z,6.40
2017-04-26T01:17:58.139Z,6.50
2017-04-26T01:18:57.838Z,6.50
2017-04-26T01:19:57.586Z,6.50
2017-04-26T01:20:57.248Z,6.50
2017-04-26T01:21:56.979Z,6.50
2017-04-26T01:22:56.660Z,6.40
2017-04-26T01:23:56.387Z,6.50
2017-04-26T01:24:56.085Z,6.50
2017-04-26T01:25:55.834Z,6.50
2017-04-26T01:26:55.567Z,6.50
2017-04-26T01:27:55.291Z,6.50
2017-04-26T01:28:54.993Z,6.40
2017-04-26T01:29:55.396Z,6.40
2017-04-26T01:30:55.144Z,6.40
2017-04-26T01:31:55.588Z,6.40
2017-04-26T01:32:55.296Z,6.50
2017-04-26T01:33:55.009Z,6.50
2017-04-26T01:34:54.668Z,6.40
2017-04-26T01:35:54.344Z,6.40
2017-04-26T01:36:54.011Z,6.40
2017-04-26T01:37:53.705Z,6.40
2017-04-26T01:38:53.425Z,6.30
2017-04-26T01:39:53.118Z,6.30
2017-04-26T01:40:52.806Z,6.30
2017-04-26T01:41:52.490Z,6.30
2017-04-26T01:42:52.173Z,6.30
2017-04-26T01:43:51.844Z,6.20
2017-04-26T01:44:51.550Z,6.20
2017-04-26T01:45:51.220Z,6.20
2017-04-26T01:46:51.644Z,6.20
2017-04-26T01:47:51.346Z,6.10
2017-04-26T01:48:51.785Z,6.10
2017-04-26T01:49:51.564Z,6.10
2017-04-26T01:50:51.241Z,6.10
2017-04-26T01:51:51.691Z,6.00
2017-04-26T01:52:51.357Z,6.10
2017-04-26T01:53:51.054Z,6.20
2017-04-26T01:54:51.567Z,6.20
2017-04-26T01:55:51.245Z,6.10
2017-04-26T01:56:50.900Z,6.10
2017-04-26T01:57:50.605Z,6.10
2017-04-26T01:58:50.313Z,6.20
2017-04-26T01:59:49.983Z,6.20
2017-04-26T02:00:49.705Z,6.10
2017-04-26T02:01:49.481Z,6.10
2017-04-26T02:02:49.190Z,6.10
2017-04-26T02:03:48.869Z,6.10
2017-04-26T02:04:48.595Z,6.00
2017-04-26T02:05:48.257Z,6.00
2017-04-26T02:06:47.988Z,6.10
2017-04-26T02:07:47.653Z,6.10
2017-04-26T02:08:47.321Z,6.10
2017-04-26T02:09:47.082Z,6.10
2017-04-26T02:10:46.817Z,6.00
2017-04-26T02:11:46.577Z,6.00
2017-04-26T02:12:46.321Z,6.10
2017-04-26T02:13:46.046Z,6.00
2017-04-26T02:14:45.743Z,6.00
2017-04-26T02:15:45.425Z,6.10
2017-04-26T02:16:45.159Z,6.10
2017-04-26T02:17:45.557Z,6.10
2017-04-26T02:18:45.336Z,6.10
2017-04-26T02:19:45.060Z,6.10
2017-04-26T02:20:45.493Z,6.00
2017-04-26T02:21:45.161Z,6.00
2017-04-26T02:22:44.893Z,5.90
2017-04-26T02:23:44.662Z,5.90
2017-04-26T02:24:44.344Z,5.90
2017-04-26T02:25:44.055Z,5.90
2017-04-26T02:26:43.736Z,5.80
2017-04-26T02:27:43.451Z,5.80
2017-04-26T02:28:43.168Z,5.90
2017-04-26T02:29:42.856Z,6.00
2017-04-26T02:30:42.621Z,6.00
2017-04-26T02:31:42.293Z,6.00
2017-04-26T02:32:41.952Z,6.00
2017-04-26T02:33:41.681Z,6.00
2017-04-26T02:34:41.356Z,6.00
2017-04-26T02:35:41.019Z,6.00
2017-04-26T02:36:40.729Z,6.00
2017-04-26T02:37:40.412Z,5.90
2017-04-26T02:38:40.160Z,5.90
2017-04-26T02:39:40.581Z,5.90
2017-04-26T02:40:40.242Z,5.80
2017-04-26T02:41:39.896Z,5.80
2017-04-26T02:42:39.599Z,5.90
2017-04-26T02:43:39.266Z,5.80
2017-04-26T02:44:39.729Z,5.80
2017-04-26T02:45:39.482Z,5.80
2017-04-26T02:46:39.145Z,5.90
2017-04-26T02:47:38.854Z,5.80
2017-04-26T02:48:38.555Z,5.80
2017-04-26T02:49:38.212Z,5.80
2017-04-26T02:50:37.894Z,5.90
2017-04-26T02:51:37.674Z,5.80
2017-04-26T02:52:37.337Z,5.80
2017-04-26T02:53:37.025Z,5.80
2017-04-26T02:54:36.730Z,5.70
2017-04-26T02:55:36.569Z,5.70
2017-04-26T02:56:36.349Z,5.70
2017-04-26T02:57:36.014Z,5.80
2017-04-26T02:58:35.765Z,5.80
2017-04-26T02:59:35.440Z,5.80
2017-04-26T03:00:35.206Z,5.80
2017-04-26T03:01:34.878Z,5.80
2017-04-26T03:02:34.598Z,5.80
2017-04-26T03:03:34.262Z,5.70
2017-04-26T03:04:33.939Z,5.70
2017-04-26T03:05:33.611Z,5.70
2017-04-26T03:06:33.325Z,5.70
2017-04-26T03:07:32.999Z,5.70
2017-04-26T03:08:32.749Z,5.80
2017-04-26T03:09:33.165Z,5.80
2017-04-26T03:10:33.554Z,5.80
2017-04-26T03:11:33.273Z,5.90
2017-04-26T03:12:33.733Z,5.80
2017-04-26T03:13:33.493Z,5.90
2017-04-26T03:14:33.169Z,5.80
2017-04-26T03:15:32.843Z,5.80
2017-04-26T03:16:32.560Z,5.80
2017-04-26T03:17:32.284Z,5.80
2017-04-26T03:18:31.992Z,5.80
2017-04-26T03:19:31.669Z,5.80
2017-04-26T03:20:31.325Z,5.80
2017-04-26T03:21:31.049Z,5.70
2017-04-26T03:22:30.778Z,5.70
2017-04-26T03:23:31.262Z,5.60
2017-04-26T03:24:30.994Z,5.60
2017-04-26T03:25:31.410Z,5.60
2017-04-26T03:26:31.108Z,5.70
2017-04-26T03:27:30.781Z,5.60
2017-04-26T03:28:30.471Z,5.70
2017-04-26T03:29:30.184Z,5.70
2017-04-26T03:30:29.896Z,5.70
2017-04-26T03:31:29.573Z,5.70
2017-04-26T03:32:29.247Z,5.70
2017-04-26T03:33:28.915Z,5.70
2017-04-26T03:34:28.571Z,5.70
2017-04-26T03:35:28.259Z,5.60
2017-04-26T03:36:27.922Z,5.60
2017-04-26T03:37:27.585Z,5.60
2017-04-26T03:38:27.285Z,5.60
2017-04-26T03:39:26.950Z,5.60
2017-04-26T03:40:26.660Z,5.60
2017-04-26T03:41:26.445Z,5.70
2017-04-26T03:42:26.107Z,5.70
2017-04-26T03:43:25.762Z,5.70
2017-04-26T03:44:25.428Z,5.70
2017-04-26T03:45:25.104Z,5.70
2017-04-26T03:46:24.767Z,5.70
2017-04-26T03:47:24.553Z,5.70
2017-04-26T03:48:24.369Z,5.70
2017-04-26T03:49:24.049Z,5.80
2017-04-26T03:50:23.731Z,5.80
2017-04-26T03:51:23.447Z,5.80
2017-04-26T03:52:23.131Z,5.80
2017-04-26T03:53:22.850Z,5.80
2017-04-26T03:54:22.524Z,5.80
2017-04-26T03:55:22.192Z,5.80
2017-04-26T03:56:21.979Z,5.80
2017-04-26T03:57:21.757Z,5.80
2017-04-26T03:58:21.404Z,5.80
2017-04-26T03:59:21.122Z,5.80
2017-04-26T04:00:20.831Z,5.80
2017-04-26T04:01:20.550Z,5.80
2017-04-26T04:02:20.202Z,5.90
2017-04-26T04:03:19.854Z,5.90
2017-04-26T04:04:19.512Z,5.90
2017-04-26T04:05:19.244Z,5.90
2017-04-26T04:06:18.885Z,5.90
2017-04-26T04:07:19.353Z,5.80
2017-04-26T04:08:19.028Z,5.90
2017-04-26T04:09:18.707Z,5.90
2017-04-26T04:10:18.447Z,5.90
2017-04-26T04:11:18.879Z,5.90
2017-04-26T04:12:18.542Z,6.00
2017-04-26T04:13:18.233Z,6.00
2017-04-26T04:14:17.872Z,6.10
2017-04-26T04:15:17.537Z,6.10
2017-04-26T04:16:17.175Z,6.10
2017-04-26T04:17:16.873Z,6.10
2017-04-26T04:18:16.603Z,6.00
2017-04-26T04:19:16.246Z,6.00
2017-04-26T04:20:15.925Z,6.00
2017-04-26T04:21:15.642Z,6.00
2017-04-26T04:22:16.040Z,5.90
2017-04-26T04:23:15.773Z,6.00
2017-04-26T04:24:15.449Z,6.00
2017-04-26T04:25:15.105Z,6.00
2017-04-26T04:26:14.787Z,6.00
2017-04-26T04:27:14.453Z,6.00
2017-04-26T04:28:14.090Z,6.00
2017-04-26T04:29:13.793Z,6.00
2017-04-26T04:30:13.489Z,5.90
2017-04-26T04:31:13.196Z,5.90
2017-04-26T04:32:12.897Z,5.90
2017-04-26T04:33:13.332Z,5.90
2017-04-26T04:34:13.017Z,5.80
2017-04-26T04:35:12.770Z,5.80
2017-04-26T04:36:12.452Z,5.80
2017-04-26T04:37:12.868Z,5.90
2017-04-26T04:38:12.560Z,5.90
2017-04-26T04:39:12.225Z,5.80
2017-04-26T04:40:11.900Z,5.90
2017-04-26T04:41:11.661Z,5.90
2017-04-26T04:42:11.339Z,5.90
2017-04-26T04:43:11.038Z,5.90
2017-04-26T04:44:10.728Z,5.90
2017-04-26T04:45:10.396Z,5.90
2017-04-26T04:46:10.028Z,5.90
2017-04-26T04:47:09.711Z,5.90
2017-04-26T04:48:09.353Z,5.90
2017-04-26T04:49:09.008Z,5.90
2017-04-26T04:50:08.737Z,5.90
2017-04-26T04:51:09.141Z,5.90
2017-04-26T04:52:08.814Z,5.90
2017-04-26T04:54:09.711Z,6.00
2017-04-26T04:55:09.483Z,6.00
2017-04-26T04:56:09.143Z,6.10
2017-04-26T04:57:09.139Z,6.10
2017-04-26T04:58:08.833Z,6.10
2017-04-26T04:59:09.241Z,6.20
2017-04-26T05:00:08.896Z,6.20
2017-04-26T05:01:08.569Z,6.30
2017-04-26T05:02:08.220Z,6.30
2017-04-26T05:03:07.897Z,6.40
2017-04-26T05:04:07.601Z,6.40
2017-04-26T05:05:07.385Z,6.50
2017-04-26T05:06:07.050Z,6.50
2017-04-26T05:07:06.712Z,6.50
2017-04-26T05:08:06.361Z,6.50
2017-04-26T05:09:06.653Z,6.60
2017-04-26T05:10:06.345Z,6.60
2017-04-26T05:11:06.045Z,6.60
2017-04-26T05:12:05.701Z,6.70
2017-04-26T05:13:05.360Z,6.70
2017-04-26T05:14:05.049Z,6.70
2017-04-26T05:15:04.719Z,6.80
2017-04-26T05:16:04.457Z,6.90
2017-04-26T05:17:04.170Z,6.90
2017-04-26T05:18:03.820Z,6.90
2017-04-26T05:19:03.579Z,6.90
2017-04-26T05:20:03.277Z,6.90
2017-04-26T05:21:02.949Z,6.90
2017-04-26T05:22:02.673Z,6.90
2017-04-26T05:23:03.068Z,6.80
2017-04-26T05:24:03.461Z,6.80
2017-04-26T05:25:03.093Z,6.80
2017-04-26T05:26:02.755Z,6.80
2017-04-26T05:27:02.506Z,6.80
2017-04-26T05:28:02.196Z,6.80
2017-04-26T05:29:01.861Z,6.90
2017-04-26T05:30:01.586Z,6.80
2017-04-26T05:31:01.282Z,6.70
2017-04-26T05:32:01.684Z,6.70
2017-04-26T05:33:03.320Z,6.70
2017-04-26T05:34:02.973Z,6.80
2017-04-26T05:35:02.645Z,6.70
2017-04-26T05:36:02.292Z,6.70
2017-04-26T05:37:02.014Z,6.70
2017-04-26T05:38:01.656Z,6.70
2017-04-26T05:39:01.551Z,6.70
2017-04-26T05:40:01.205Z,6.80
2017-04-26T05:41:01.019Z,6.80
2017-04-26T05:42:01.541Z,6.80
2017-04-26T05:43:01.960Z,6.90
2017-04-26T05:44:02.404Z,7.00
2017-04-26T05:45:02.059Z,7.10
2017-04-26T05:46:02.059Z,7.10
2017-04-26T05:47:02.561Z,7.20
2017-04-26T05:48:02.320Z,7.20
2017-04-26T05:49:01.984Z,7.20
2017-04-26T05:50:02.503Z,7.20
2017-04-26T05:51:02.277Z,7.20
2017-04-26T05:52:02.151Z,7.20
2017-04-26T05:53:01.870Z,7.20
2017-04-26T05:54:02.436Z,7.30
2017-04-26T05:55:02.104Z,7.20
2017-04-26T05:56:01.806Z,7.20
2017-04-26T05:57:01.529Z,7.10
2017-04-26T05:58:02.332Z,7.00
2017-04-26T05:59:01.994Z,7.10
2017-04-26T06:00:01.635Z,7.00
2017-04-26T06:01:02.089Z,6.90
2017-04-26T06:02:01.796Z,6.90
2017-04-26T06:03:01.471Z,6.80
2017-04-26T06:04:01.222Z,6.90
2017-04-26T06:05:00.960Z,7.00
2017-04-26T06:06:01.430Z,7.00
2017-04-26T06:07:01.180Z,7.00
2017-04-26T06:08:00.857Z,7.00
2017-04-26T06:09:01.285Z,7.00
2017-04-26T06:10:01.020Z,7.00
2017-04-26T06:11:00.732Z,6.90
2017-04-26T06:12:00.422Z,7.00
2017-04-26T06:13:00.069Z,6.90
2017-04-26T06:14:00.570Z,6.90
2017-04-26T06:15:00.217Z,7.00
2017-04-26T06:15:59.893Z,7.00
2017-04-26T06:17:00.364Z,7.00
2017-04-26T06:18:00.111Z,7.00
2017-04-26T06:19:00.058Z,7.00
2017-04-26T06:19:59.743Z,7.00
2017-04-26T06:20:59.470Z,7.10
2017-04-26T06:21:59.210Z,7.10
2017-04-26T06:22:58.955Z,7.20
2017-04-26T06:23:58.712Z,7.30
2017-04-26T06:24:58.449Z,7.40
2017-04-26T06:25:58.132Z,7.40
2017-04-26T06:26:57.779Z,7.40
2017-04-26T06:27:57.455Z,7.30
2017-04-26T06:28:57.144Z,7.30
2017-04-26T06:29:56.794Z,7.40
2017-04-26T06:30:57.224Z,7.50
2017-04-26T06:31:56.880Z,7.50
2017-04-26T06:32:56.557Z,7.50
2017-04-26T06:33:56.957Z,7.50
2017-04-26T06:34:56.659Z,7.60
2017-04-26T06:35:56.335Z,7.60
2017-04-26T06:36:55.979Z,7.60
2017-04-26T06:37:55.706Z,7.60
2017-04-26T06:38:55.429Z,7.60
2017-04-26T06:39:55.081Z,7.60
2017-04-26T06:40:54.764Z,7.70
2017-04-26T06:41:55.225Z,7.70
2017-04-26T06:42:54.876Z,7.70
2017-04-26T06:43:54.622Z,7.70
2017-04-26T06:44:55.119Z,7.60
2017-04-26T06:45:54.841Z,7.50
2017-04-26T06:46:54.498Z,7.50
2017-04-26T06:47:54.173Z,7.50
2017-04-26T06:48:53.874Z,7.50
2017-04-26T06:49:53.541Z,7.50
2017-04-26T06:50:53.203Z,7.50
2017-04-26T06:51:52.896Z,7.40
2017-04-26T06:52:52.548Z,7.40
2017-04-26T06:53:52.199Z,7.40
2017-04-26T06:54:51.918Z,7.40
2017-04-26T06:55:51.573Z,7.50
2017-04-26T06:56:51.233Z,7.50
2017-04-26T06:57:50.930Z,7.40
2017-04-26T06:58:50.711Z,7.40
2017-04-26T06:59:50.374Z,7.30
2017-04-26T07:00:50.110Z,7.40
2017-04-26T07:01:49.768Z,7.40
2017-04-26T07:02:59.370Z,7.40
2017-04-26T07:03:59.041Z,7.40
2017-04-26T07:04:58.689Z,7.40
2017-04-26T07:05:58.384Z,7.40
2017-04-26T07:06:58.072Z,7.50
2017-04-26T07:07:57.724Z,7.50
2017-04-26T07:08:57.416Z,7.60
2017-04-26T07:09:57.092Z,7.60
2017-04-26T07:10:56.941Z,7.70
2017-04-26T07:11:56.676Z,7.70
2017-04-26T07:12:56.338Z,7.70
2017-04-26T07:13:56.007Z,7.80
2017-04-26T07:14:55.712Z,7.90
2017-04-26T07:15:55.401Z,7.90
2017-04-26T07:16:55.080Z,8.00
2017-04-26T07:17:54.826Z,8.00
2017-04-26T07:18:54.481Z,7.90
2017-04-26T07:19:54.143Z,7.90
2017-04-26T07:20:53.848Z,7.80
2017-04-26T07:21:53.604Z,7.80
2017-04-26T07:22:53.257Z,7.70
2017-04-26T07:23:52.901Z,7.80
2017-04-26T07:24:52.563Z,7.70
2017-04-26T07:25:52.249Z,7.60
2017-04-26T07:26:51.992Z,7.60
2017-04-26T07:27:51.645Z,7.60
2017-04-26T07:28:51.391Z,7.50
2017-04-26T07:29:51.068Z,7.50
2017-04-26T07:30:50.787Z,7.50
2017-04-26T07:31:51.187Z,7.60
2017-04-26T07:32:50.886Z,7.60
2017-04-26T07:33:51.326Z,7.70
2017-04-26T07:34:50.989Z,7.80
2017-04-26T07:35:50.669Z,7.80
2017-04-26T07:36:50.349Z,7.80
2017-04-26T07:37:50.004Z,8.00
2017-04-26T07:38:49.721Z,8.00
2017-04-26T07:39:49.381Z,8.10
2017-04-26T07:40:49.044Z,8.20
2017-04-26T07:41:48.694Z,8.30
2017-04-26T07:42:48.352Z,8.30
2017-04-26T07:43:48.033Z,8.40
2017-04-26T07:44:48.053Z,8.50
2017-04-26T07:45:47.712Z,8.50
2017-04-26T07:46:47.357Z,8.60
2017-04-26T07:47:47.313Z,8.50
2017-04-26T07:48:46.989Z,8.50
2017-04-26T07:49:47.397Z,8.60
2017-04-26T07:50:47.107Z,8.70
2017-04-26T07:51:47.508Z,8.70
2017-04-26T07:52:47.221Z,8.70
2017-04-26T07:53:46.868Z,8.80
2017-04-26T07:54:46.617Z,8.80
2017-04-26T07:55:47.064Z,8.70
2017-04-26T07:56:46.721Z,8.80
2017-04-26T07:57:47.115Z,8.80
2017-04-26T07:58:46.772Z,8.80
2017-04-26T07:59:46.521Z,8.70
2017-04-26T08:00:46.240Z,8.80
2017-04-26T08:01:45.939Z,8.70
2017-04-26T08:02:46.415Z,8.60
2017-04-26T08:03:46.079Z,8.70
2017-04-26T08:04:45.733Z,8.70
2017-04-26T08:05:45.398Z,8.60
2017-04-26T08:06:45.040Z,8.60
2017-04-26T08:07:45.481Z,8.50
2017-04-26T08:08:45.144Z,8.50
2017-04-26T08:09:44.805Z,8.60
2017-04-26T08:10:44.462Z,8.50
2017-04-26T08:11:44.125Z,8.50
2017-04-26T08:12:43.850Z,8.60
2017-04-26T08:13:43.591Z,8.50
2017-04-26T08:14:43.352Z,8.60
2017-04-26T08:15:43.016Z,8.80
2017-04-26T08:16:42.746Z,8.90
2017-04-26T08:17:43.136Z,8.80
2017-04-26T08:18:42.829Z,8.90
2017-04-26T08:19:42.522Z,9.00
2017-04-26T08:20:42.187Z,9.00
2017-04-26T08:21:41.841Z,9.00
2017-04-26T08:22:41.511Z,8.90
2017-04-26T08:23:41.161Z,9.00
2017-04-26T08:24:40.825Z,8.90
2017-04-26T08:25:40.554Z,9.00
2017-04-26T08:26:40.225Z,9.00
2017-04-26T08:27:39.877Z,8.90
2017-04-26T08:28:39.533Z,8.90
2017-04-26T08:29:39.180Z,8.90
2017-04-26T08:30:38.832Z,9.00
2017-04-26T08:31:39.518Z,9.10
2017-04-26T08:32:39.179Z,9.30
2017-04-26T08:33:38.828Z,9.30
2017-04-26T08:34:39.236Z,9.30
2017-04-26T08:35:38.957Z,9.40
2017-04-26T08:36:39.468Z,9.40
2017-04-26T08:37:39.928Z,9.50
2017-04-26T08:38:39.563Z,9.50
2017-04-26T08:39:39.290Z,9.40
2017-04-26T08:40:38.956Z,9.40
2017-04-26T08:41:38.662Z,9.40
2017-04-26T08:42:38.375Z,9.30
2017-04-26T08:43:38.027Z,9.30
2017-04-26T08:44:37.697Z,9.20
2017-04-26T08:45:37.362Z,9.20
2017-04-26T08:46:37.032Z,9.30
2017-04-26T08:47:36.719Z,9.30
2017-04-26T08:48:37.097Z,9.40
2017-04-26T08:49:36.761Z,9.60
2017-04-26T08:50:36.485Z,9.50
2017-04-26T08:51:36.908Z,9.50
2017-04-26T08:52:36.616Z,9.50
2017-04-26T08:53:36.274Z,9.40
2017-04-26T08:54:35.914Z,9.50
2017-04-26T08:55:35.577Z,9.40
2017-04-26T08:56:36.995Z,9.40
2017-04-26T08:57:36.684Z,9.40
2017-04-26T08:58:37.140Z,9.40
2017-04-26T08:59:36.801Z,9.40
2017-04-26T09:00:36.517Z,9.30
2017-04-26T09:01:36.126Z,9.20
2017-04-26T09:02:35.805Z,9.30
2017-04-26T09:03:35.493Z,9.30
2017-04-26T09:04:35.180Z,9.10
2017-04-26T09:05:34.841Z,9.00
2017-04-26T09:06:34.507Z,9.20
2017-04-26T09:07:34.920Z,9.20
2017-04-26T09:08:35.315Z,9.10
2017-04-26T09:09:35.012Z,9.10
2017-04-26T09:10:34.750Z,9.20
2017-04-26T09:11:35.146Z,9.30
2017-04-26T09:12:34.861Z,9.30
2017-04-26T09:13:35.247Z,9.30
2017-04-26T09:14:34.941Z,9.40
2017-04-26T09:15:34.621Z,9.40
2017-04-26T09:16:35.011Z,9.40
2017-04-26T09:17:34.668Z,9.50
2017-04-26T09:18:34.320Z,9.40
2017-04-26T09:19:33.961Z,9.50
2017-04-26T09:20:33.640Z,9.50
2017-04-26T09:21:33.377Z,9.50
2017-04-26T09:22:33.043Z,9.70
2017-04-26T09:23:32.775Z,9.70
2017-04-26T09:24:33.177Z,9.60
2017-04-26T09:25:32.837Z,9.50
2017-04-26T09:26:32.558Z,9.40
2017-04-26T09:27:32.308Z,9.50
2017-04-26T09:28:31.983Z,9.60
2017-04-26T09:29:31.649Z,9.60
2017-04-26T09:30:31.381Z,9.60
2017-04-26T09:31:31.033Z,9.70
2017-04-26T09:32:30.776Z,9.70
2017-04-26T09:33:30.490Z,9.50
2017-04-26T09:34:30.149Z,9.60
2017-04-26T09:35:29.872Z,9.70
2017-04-26T09:36:29.529Z,9.80
2017-04-26T09:37:29.210Z,9.80
2017-04-26T09:38:28.917Z,9.60
2017-04-26T09:39:28.664Z,9.30
2017-04-26T09:40:29.078Z,9.10
2017-04-26T09:41:28.772Z,8.90
2017-04-26T09:42:29.209Z,8.70
2017-04-26T09:43:28.964Z,8.70
2017-04-26T09:44:28.673Z,8.50
2017-04-26T09:45:28.348Z,8.40
2017-04-26T09:46:28.018Z,8.30
2017-04-26T09:47:27.694Z,8.20
2017-04-26T09:48:27.415Z,8.20
2017-04-26T09:49:27.148Z,8.20
2017-04-26T09:50:26.856Z,8.20
2017-04-26T09:51:26.514Z,8.30
2017-04-26T09:52:26.181Z,8.30
2017-04-26T09:53:25.830Z,8.40
2017-04-26T09:54:25.469Z,8.40
2017-04-26T09:55:25.161Z,8.30
2017-04-26T09:56:24.818Z,8.50
2017-04-26T09:57:24.484Z,8.40
2017-04-26T09:58:24.135Z,8.40
2017-04-26T09:59:23.859Z,8.40
2017-04-26T10:00:23.545Z,8.30
2017-04-26T10:01:23.333Z,8.20
2017-04-26T10:02:23.016Z,8.20
2017-04-26T10:03:22.758Z,8.10
2017-04-26T10:04:22.408Z,8.10
2017-04-26T10:05:22.801Z,8.00
2017-04-26T10:06:22.437Z,8.10
2017-04-26T10:07:22.121Z,8.10
2017-04-26T10:08:21.861Z,8.10
2017-04-26T10:09:22.237Z,8.10
2017-04-26T10:10:21.893Z,8.10
2017-04-26T10:11:21.547Z,8.10
2017-04-26T10:12:21.231Z,8.00
2017-04-26T10:13:20.925Z,8.00
2017-04-26T10:14:30.465Z,7.90
2017-04-26T10:15:20.433Z,7.80
2017-04-26T10:16:20.165Z,7.80
2017-04-26T10:17:20.552Z,7.60
2017-04-26T10:18:20.266Z,7.50
2017-04-26T10:19:19.941Z,7.40
2017-04-26T10:20:19.605Z,7.40
2017-04-26T10:21:19.261Z,7.40
2017-04-26T10:22:18.916Z,7.30
2017-04-26T10:23:18.561Z,7.30
2017-04-26T10:24:18.263Z,7.40
2017-04-26T10:25:18.657Z,7.30
2017-04-26T10:26:18.376Z,7.50
2017-04-26T10:27:18.759Z,7.40
2017-04-26T10:28:18.490Z,7.50
2017-04-26T10:29:18.920Z,7.50
2017-04-26T10:30:20.163Z,7.70
2017-04-26T10:31:18.407Z,7.80
2017-04-26T10:32:18.069Z,7.90
2017-04-26T10:33:17.726Z,8.00
2017-04-26T10:34:17.381Z,8.10
2017-04-26T10:35:17.458Z,8.20
2017-04-26T10:36:17.190Z,8.30
2017-04-26T10:37:16.853Z,8.30
2017-04-26T10:38:16.504Z,8.40
2017-04-26T10:39:16.901Z,8.50
2017-04-26T10:40:16.584Z,8.60
2017-04-26T10:41:16.328Z,8.60
2017-04-26T10:42:15.972Z,8.70
2017-04-26T10:43:15.720Z,8.80
2017-04-26T10:44:15.361Z,8.80
2017-04-26T10:45:19.659Z,8.90
2017-04-26T10:46:19.408Z,9.00
2017-04-26T10:47:19.793Z,9.00
2017-04-26T10:48:19.522Z,9.00
2017-04-26T10:49:19.173Z,9.00
2017-04-26T10:50:18.854Z,9.10
2017-04-26T10:51:18.496Z,9.10
2017-04-26T10:52:18.206Z,9.10
2017-04-26T10:53:18.608Z,9.10
2017-04-26T10:54:18.276Z,9.10
2017-04-26T10:55:17.946Z,9.10
2017-04-26T10:56:17.601Z,9.00
2017-04-26T10:57:17.318Z,9.00
2017-04-26T10:58:17.013Z,9.00
2017-04-26T10:59:16.681Z,9.00
2017-04-26T11:00:16.568Z,9.10
2017-04-26T11:01:17.025Z,9.10
2017-04-26T11:02:16.745Z,9.20
2017-04-26T11:03:16.397Z,9.20
2017-04-26T11:04:16.121Z,9.10
2017-04-26T11:05:15.798Z,9.20
2017-04-26T11:06:15.462Z,9.00
2017-04-26T11:07:15.104Z,8.80
2017-04-26T11:08:14.755Z,8.70
2017-04-26T11:09:14.411Z,8.70
2017-04-26T11:10:14.841Z,8.70
2017-04-26T11:11:14.517Z,8.60
2017-04-26T11:12:14.179Z,8.50
2017-04-26T11:13:13.926Z,8.60
2017-04-26T11:14:13.581Z,8.60
2017-04-26T11:15:13.325Z,8.60
2017-04-26T11:16:13.100Z,8.50
2017-04-26T11:17:12.758Z,8.60
2017-04-26T11:18:12.409Z,8.60
2017-04-26T11:19:12.813Z,8.70
2017-04-26T11:20:13.221Z,8.70
2017-04-26T11:21:12.907Z,8.70
2017-04-26T11:22:12.645Z,8.70
2017-04-26T11:23:13.033Z,8.80
2017-04-26T11:24:12.760Z,8.80
2017-04-26T11:25:12.412Z,8.80
2017-04-26T11:26:12.063Z,8.80
2017-04-26T11:27:11.775Z,8.80
2017-04-26T11:28:11.424Z,8.80
2017-04-26T11:29:11.148Z,8.90
2017-04-26T11:30:10.854Z,8.90
2017-04-26T11:31:10.501Z,9.00
2017-04-26T11:32:10.218Z,9.00
2017-04-26T11:33:09.919Z,8.80
2017-04-26T11:34:09.581Z,8.60
2017-04-26T11:35:09.338Z,8.50
2017-04-26T11:36:08.991Z,8.50
2017-04-26T11:37:08.734Z,8.50
2017-04-26T11:38:09.141Z,8.40
2017-04-26T11:39:08.854Z,8.40
2017-04-26T11:40:08.508Z,8.30
2017-04-26T11:41:08.155Z,8.30
2017-04-26T11:42:07.821Z,8.10
2017-04-26T11:43:07.539Z,8.00
2017-04-26T11:44:07.190Z,7.90
2017-04-26T11:45:06.917Z,7.90
2017-04-26T11:46:06.636Z,7.80
2017-04-26T11:47:06.331Z,7.80
2017-04-26T11:48:06.726Z,7.80
2017-04-26T11:49:06.380Z,7.70
2017-04-26T11:50:06.143Z,7.70
2017-04-26T11:51:06.599Z,7.70
2017-04-26T11:52:06.253Z,7.60
2017-04-26T11:53:05.892Z,7.50
2017-04-26T11:54:05.558Z,7.50
2017-04-26T11:55:05.218Z,7.50
2017-04-26T11:56:04.879Z,7.50
2017-04-26T11:57:04.588Z,7.50
2017-04-26T11:58:04.221Z,7.50
2017-04-26T11:59:03.902Z,7.50
2017-04-26T12:00:03.572Z,7.50
2017-04-26T12:01:03.230Z,7.50
2017-04-26T12:02:02.891Z,7.40
2017-04-26T12:03:02.646Z,7.50
2017-04-26T12:04:02.304Z,7.50
2017-04-26T12:05:01.992Z,7.40
2017-04-26T12:06:01.684Z,7.40
2017-04-26T12:07:01.343Z,7.30
2017-04-26T12:08:01.016Z,7.10
2017-04-26T12:09:00.737Z,7.10
2017-04-26T12:10:00.417Z,7.00
2017-04-26T12:11:00.866Z,6.80
2017-04-26T12:12:00.544Z,6.70
2017-04-26T12:13:00.311Z,6.70
2017-04-26T12:13:59.997Z,6.70
2017-04-26T12:14:59.779Z,6.60
2017-04-26T12:15:59.470Z,6.50
2017-04-26T12:16:59.170Z,6.40
2017-04-26T12:17:58.860Z,6.30
2017-04-26T12:18:58.542Z,6.30
2017-04-26T12:19:58.323Z,6.30
2017-04-26T12:20:58.040Z,6.20
2017-04-26T12:21:57.713Z,6.20
2017-04-26T12:22:57.411Z,6.20
2017-04-26T12:23:57.090Z,6.10
2017-04-26T12:24:56.760Z,6.10
2017-04-26T12:25:56.579Z,6.00
2017-04-26T12:26:56.306Z,6.00
2017-04-26T12:27:56.717Z,5.90
2017-04-26T12:28:57.173Z,5.90
2017-04-26T12:29:56.908Z,5.90
2017-04-26T12:30:56.614Z,5.90
2017-04-26T12:31:56.374Z,6.00
2017-04-26T12:32:56.059Z,6.00
2017-04-26T12:33:55.749Z,6.00
2017-04-26T12:34:55.453Z,6.00
2017-04-26T12:35:55.170Z,5.90
2017-04-26T12:36:54.857Z,5.90
2017-04-26T12:37:54.614Z,6.00
2017-04-26T12:38:54.300Z,6.00
2017-04-26T12:39:54.017Z,6.10
2017-04-26T12:40:53.714Z,6.10
2017-04-26T12:41:53.422Z,6.10
2017-04-26T12:42:53.128Z,6.10
2017-04-26T12:43:53.128Z,6.10
2017-04-26T12:44:52.825Z,6.20
2017-04-26T12:45:53.281Z,6.10
2017-04-26T12:46:52.995Z,6.20
2017-04-26T12:47:52.686Z,6.20
2017-04-26T12:48:52.505Z,6.20
2017-04-26T12:49:52.229Z,6.10
2017-04-26T12:50:51.930Z,6.10
2017-04-26T12:51:51.650Z,6.10
2017-04-26T12:52:51.386Z,6.00
2017-04-26T12:53:51.124Z,6.00
2017-04-26T12:54:50.890Z,6.00
2017-04-26T12:55:50.660Z,6.00
2017-04-26T12:56:50.368Z,6.00
2017-04-26T12:57:50.131Z,6.00
2017-04-26T12:58:50.602Z,6.00
2017-04-26T12:59:50.371Z,6.00
2017-04-26T13:00:50.194Z,6.00
2017-04-26T13:01:49.933Z,6.00
2017-04-26T13:02:49.706Z,6.10
2017-04-26T13:03:49.473Z,6.10
2017-04-26T13:04:49.206Z,6.10
2017-04-26T13:05:48.907Z,6.10
2017-04-26T13:06:48.689Z,6.10
2017-04-26T13:07:48.442Z,6.00
2017-04-26T13:08:48.199Z,6.00
2017-04-26T13:09:47.969Z,6.00
2017-04-26T13:10:47.742Z,6.00
2017-04-26T13:11:47.569Z,6.10
2017-04-26T13:12:47.340Z,6.10
2017-04-26T13:13:47.845Z,6.20
2017-04-26T13:14:47.579Z,6.20
2017-04-26T13:15:47.321Z,6.20
2017-04-26T13:16:47.050Z,6.10